Time;durP1;ratioP1;P1;durP2;ratioP2;P2;SDS_P1;SDS_P2;PMS_P1;PMS_P2;Temp;Humidity;BMP_temperature;BMP_pressure;BME280_temperature;BME280_humidity;BME280_pressure;Samples;Min_cycle;Max_cycle;Signal;HPM_P1;HPM_P2
2021/12/20 00:01:48;;;;;;;35.08;18.00;;;1.50;99.90;;;;;;5091873;28;20111;-60
2021/12/20 00:04:13;;;;;;;25.60;16.30;;;1.50;99.90;;;;;;5091590;28;20020;-59
2021/12/20 00:06:39;;;;;;;46.25;23.67;;;1.60;99.90;;;;;;5091548;28;20107;-59
2021/12/20 00:09:05;;;;;;;30.63;17.55;;;1.50;99.90;;;;;;5091420;28;20111;-60
2021/12/20 00:11:31;;;;;;;42.17;20.95;;;1.60;99.90;;;;;;5090884;28;20167;-60
2021/12/20 00:13:56;;;;;;;33.58;18.45;;;1.50;99.90;;;;;;5091786;28;20489;-60
2021/12/20 00:16:22;;;;;;;28.48;17.42;;;1.50;99.90;;;;;;5091283;28;20071;-60
2021/12/20 00:18:48;;;;;;;39.40;19.50;;;1.50;99.90;;;;;;5091626;28;20077;-60
2021/12/20 00:21:14;;;;;;;27.13;17.05;;;1.50;99.90;;;;;;5091274;28;20080;-60
2021/12/20 00:23:40;;;;;;;26.02;16.13;;;1.60;99.90;;;;;;5073280;28;20028;-60
2021/12/20 00:26:06;;;;;;;25.45;16.52;;;1.60;99.90;;;;;;5091282;28;20016;-60
2021/12/20 00:28:32;;;;;;;33.88;20.45;;;1.60;99.90;;;;;;5091269;28;20078;-60
2021/12/20 00:30:58;;;;;;;30.75;16.40;;;1.60;99.90;;;;;;5073166;28;20024;-60
2021/12/20 00:33:23;;;;;;;33.45;19.08;;;1.60;99.90;;;;;;5091130;28;20032;-60
2021/12/20 00:35:49;;;;;;;37.63;22.10;;;1.60;99.90;;;;;;5091110;28;20386;-60
2021/12/20 00:40:59;;;;;;;31.10;18.15;;;1.50;99.90;;;;;;5091283;28;20031;-60
2021/12/20 00:43:25;;;;;;;29.83;16.50;;;1.60;99.90;;;;;;5091021;28;20020;-60
2021/12/20 00:45:51;;;;;;;41.63;21.13;;;1.70;99.90;;;;;;5091137;28;20020;-60
2021/12/20 00:48:17;;;;;;;28.60;17.55;;;1.60;99.90;;;;;;5090731;28;20089;-60
2021/12/20 00:50:44;;;;;;;40.65;19.38;;;1.60;99.90;;;;;;5091015;28;20024;-59
2021/12/20 00:53:11;;;;;;;32.92;18.35;;;1.60;99.90;;;;;;5090831;28;20379;-60
2021/12/20 00:55:37;;;;;;;44.25;21.00;;;1.70;99.90;;;;;;5090829;28;20649;-60
2021/12/20 00:58:03;;;;;;;24.33;16.33;;;1.70;99.90;;;;;;5090788;28;20128;-60
2021/12/20 01:00:33;;;;;;;51.58;26.13;;;1.80;99.90;;;;;;5090926;28;20360;-60
2021/12/20 01:03:00;;;;;;;49.50;24.55;;;1.70;99.90;;;;;;5090655;28;20031;-60
2021/12/20 01:05:26;;;;;;;26.50;15.85;;;1.70;99.90;;;;;;5090555;28;20032;-60
2021/12/20 01:07:55;;;;;;;21.73;14.52;;;1.70;99.90;;;;;;5090866;28;20391;-60
2021/12/20 01:10:21;;;;;;;24.92;14.95;;;1.80;99.90;;;;;;5090787;28;20024;-60
2021/12/20 01:12:49;;;;;;;24.17;13.98;;;1.80;99.90;;;;;;5090484;28;20103;-60
2021/12/20 01:15:37;;;;;;;30.63;17.55;;;1.90;99.90;;;;;;5090659;28;20066;-60
2021/12/20 01:18:05;;;;;;;20.17;13.05;;;1.80;99.90;;;;;;5090365;28;20032;-60
2021/12/20 01:20:33;;;;;;;22.25;11.77;;;1.90;99.90;;;;;;5090647;28;20032;-60
2021/12/20 01:22:59;;;;;;;25.20;14.93;;;1.90;99.90;;;;;;5093240;28;20028;-60
2021/12/20 01:25:25;;;;;;;22.67;14.52;;;1.90;99.90;;;;;;5097151;28;20051;-60
2021/12/20 01:27:51;;;;;;;21.52;13.80;;;1.80;99.90;;;;;;5097452;28;20020;-60
2021/12/20 01:30:21;;;;;;;21.50;14.15;;;1.90;99.90;;;;;;5097137;28;20081;-60
2021/12/20 01:32:47;;;;;;;24.70;14.80;;;1.80;99.90;;;;;;5097103;28;20024;-60
2021/12/20 01:35:14;;;;;;;23.65;13.68;;;1.90;99.90;;;;;;5097176;28;20419;-59
2021/12/20 01:37:40;;;;;;;22.33;14.77;;;1.80;99.90;;;;;;5097349;28;20023;-60
2021/12/20 01:40:09;;;;;;;22.92;12.93;;;1.90;99.90;;;;;;5097011;28;20035;-60
2021/12/20 01:42:36;;;;;;;23.05;13.82;;;1.90;99.90;;;;;;5096768;28;20036;-60
2021/12/20 01:45:04;;;;;;;24.02;14.07;;;1.90;99.90;;;;;;5097084;28;20016;-60
2021/12/20 01:47:34;;;;;;;21.52;14.63;;;1.90;99.90;;;;;;5097035;28;20378;-60
2021/12/20 01:50:35;;;;;;;24.38;15.65;;;1.90;99.90;;;;;;5096904;28;20099;-60
2021/12/20 01:53:01;;;;;;;22.05;13.65;;;1.90;99.90;;;;;;5097088;28;20052;-60
2021/12/20 01:55:26;;;;;;;21.45;14.73;;;2.00;99.90;;;;;;5096806;28;20050;-60
2021/12/20 01:57:52;;;;;;;22.92;13.60;;;2.00;99.90;;;;;;5097181;28;20016;-60
2021/12/20 02:00:22;;;;;;;22.83;15.00;;;2.00;99.90;;;;;;5096860;28;20048;-60
2021/12/20 02:02:53;;;;;;;24.33;14.13;;;2.00;99.90;;;;;;5096894;28;20063;-60
2021/12/20 02:05:27;;;;;;;23.05;14.65;;;2.00;99.90;;;;;;5078874;28;20279;-60
2021/12/20 02:08:13;;;;;;;20.63;14.90;;;2.10;99.90;;;;;;5096891;28;20024;-60
2021/12/20 02:10:39;;;;;;;24.38;16.55;;;2.10;99.90;;;;;;5096959;28;20024;-60
2021/12/20 02:13:05;;;;;;;23.88;15.05;;;2.10;99.90;;;;;;5096840;28;20028;-60
2021/12/20 02:15:31;;;;;;;21.83;14.95;;;2.10;99.90;;;;;;5096750;28;20528;-60
2021/12/20 02:17:56;;;;;;;23.20;15.93;;;2.10;99.90;;;;;;5078603;28;20522;-60
2021/12/20 02:20:27;;;;;;;26.73;16.52;;;2.10;99.90;;;;;;5096654;28;20123;-60
2021/12/20 02:22:57;;;;;;;25.13;15.63;;;2.10;99.90;;;;;;5096730;28;20115;-60
2021/12/20 02:25:25;;;;;;;22.27;14.90;;;2.10;99.90;;;;;;5096653;28;20020;-60
2021/12/20 02:27:51;;;;;;;22.88;14.90;;;2.10;99.90;;;;;;5078815;28;20024;-60
2021/12/20 02:38:29;;;;;;;19.17;14.48;;;2.10;99.90;;;;;;5093361;28;20031;-60
2021/12/20 02:41:08;;;;;;;22.05;14.95;;;2.20;99.90;;;;;;5093399;28;20093;-60
2021/12/20 02:43:38;;;;;;;23.23;15.13;;;2.30;99.90;;;;;;5093428;28;20434;-60
2021/12/20 02:46:09;;;;;;;21.42;14.13;;;2.20;99.90;;;;;;5074986;28;20055;-60
2021/12/20 02:48:35;;;;;;;23.08;15.27;;;2.20;99.90;;;;;;5093251;28;20078;-60
2021/12/20 02:51:00;;;;;;;24.77;15.55;;;2.20;99.90;;;;;;5093281;28;20032;-60
2021/12/20 02:53:26;;;;;;;22.35;15.38;;;2.30;99.90;;;;;;5075037;28;20027;-60
2021/12/20 02:55:52;;;;;;;25.95;15.73;;;2.20;99.90;;;;;;5093155;28;20039;-60
2021/12/20 02:58:17;;;;;;;30.45;16.17;;;2.20;99.90;;;;;;5092906;28;20035;-60
2021/12/20 03:00:43;;;;;;;23.38;15.48;;;2.20;99.90;;;;;;5074801;28;20036;-60
2021/12/20 03:03:09;;;;;;;21.58;14.32;;;2.30;99.90;;;;;;5092801;28;20016;-60
2021/12/20 03:05:35;;;;;;;25.35;15.90;;;2.40;99.90;;;;;;5093082;28;20521;-60
2021/12/20 03:08:02;;;;;;;23.88;15.70;;;2.30;99.90;;;;;;5092824;28;20470;-60
2021/12/20 03:10:30;;;;;;;22.08;14.63;;;2.20;99.90;;;;;;5074555;28;20386;-60
2021/12/20 03:12:56;;;;;;;23.98;16.48;;;2.30;99.90;;;;;;5092884;28;20060;-60
2021/12/20 03:15:25;;;;;;;25.63;18.25;;;2.30;99.90;;;;;;5092776;28;20129;-60
2021/12/20 03:17:54;;;;;;;26.23;16.92;;;2.20;99.90;;;;;;5074479;28;20495;-60
2021/12/20 03:20:21;;;;;;;23.90;15.80;;;2.20;99.90;;;;;;5092529;28;20031;-60
2021/12/20 03:22:47;;;;;;;26.30;17.08;;;2.20;99.90;;;;;;5092685;28;20047;-60
2021/12/20 03:25:13;;;;;;;29.88;17.88;;;2.30;99.90;;;;;;5092485;28;20024;-60
2021/12/20 03:27:39;;;;;;;28.80;17.70;;;2.20;99.90;;;;;;5092458;28;20467;-60
2021/12/20 03:30:07;;;;;;;26.58;17.63;;;2.30;99.90;;;;;;5092489;28;20493;-60
2021/12/20 03:32:33;;;;;;;29.70;18.48;;;2.30;99.90;;;;;;5092498;28;20023;-60
2021/12/20 03:34:59;;;;;;;29.73;16.85;;;2.30;99.90;;;;;;5073963;28;20032;-60
2021/12/20 03:37:24;;;;;;;25.95;16.65;;;2.30;99.90;;;;;;5092080;28;20039;-60
2021/12/20 03:39:50;;;;;;;26.27;16.73;;;2.30;99.90;;;;;;5092354;28;20106;-60
2021/12/20 03:42:18;;;;;;;24.98;14.65;;;2.30;99.90;;;;;;5092048;28;20051;-60
2021/12/20 03:44:45;;;;;;;22.38;15.80;;;2.40;99.90;;;;;;5092303;28;20048;-60
2021/12/20 03:47:15;;;;;;;22.15;15.55;;;2.40;99.90;;;;;;5090827;28;20023;-60
2021/12/20 03:49:41;;;;;;;23.05;15.00;;;2.40;99.90;;;;;;5091794;28;20024;-59
2021/12/20 03:52:08;;;;;;;19.80;13.60;;;2.40;99.90;;;;;;5091944;28;20028;-60
2021/12/20 03:54:35;;;;;;;22.20;13.45;;;2.40;99.90;;;;;;5092019;28;20031;-60
2021/12/20 03:57:00;;;;;;;17.65;12.35;;;2.30;99.90;;;;;;5091851;28;20032;-60
2021/12/20 03:59:28;;;;;;;21.40;12.90;;;2.40;99.90;;;;;;5091543;28;20049;-60
2021/12/20 04:01:54;;;;;;;16.65;11.27;;;2.30;99.90;;;;;;5091968;28;20227;-60
2021/12/20 04:04:20;;;;;;;21.55;13.75;;;2.30;99.90;;;;;;5091670;28;20316;-60
2021/12/20 04:06:46;;;;;;;17.73;12.07;;;2.30;99.90;;;;;;5091732;28;20020;-60
2021/12/20 04:09:12;;;;;;;18.85;13.38;;;2.40;99.90;;;;;;5073496;28;20046;-60
2021/12/20 04:11:37;;;;;;;19.65;12.95;;;2.30;99.90;;;;;;5091647;28;20103;-60
2021/12/20 04:14:03;;;;;;;17.05;12.48;;;2.30;99.90;;;;;;5073501;28;20119;-60
2021/12/20 04:16:29;;;;;;;21.67;14.25;;;2.30;99.90;;;;;;5091489;28;20059;-60
2021/12/20 04:18:55;;;;;;;19.67;13.68;;;2.30;99.90;;;;;;5091487;28;20035;-60
2021/12/20 04:21:21;;;;;;;20.73;13.55;;;2.40;99.90;;;;;;5091259;28;20475;-60
2021/12/20 04:23:47;;;;;;;22.05;15.20;;;2.40;99.90;;;;;;5091594;28;20032;-60
2021/12/20 04:26:13;;;;;;;22.42;14.15;;;2.40;99.90;;;;;;5091277;28;20037;-60
2021/12/20 04:28:40;;;;;;;24.02;14.75;;;2.30;99.90;;;;;;5091402;28;20028;-60
2021/12/20 04:31:06;;;;;;;26.98;16.27;;;2.40;99.90;;;;;;5091243;28;20028;-60
2021/12/20 04:33:32;;;;;;;26.20;16.85;;;2.40;99.90;;;;;;5091390;28;20027;-60
2021/12/20 04:35:58;;;;;;;28.05;17.80;;;2.40;99.90;;;;;;5091151;28;20028;-60
2021/12/20 04:38:26;;;;;;;25.55;16.73;;;2.40;99.90;;;;;;5091119;28;20089;-60
2021/12/20 04:40:52;;;;;;;24.67;16.02;;;2.40;99.90;;;;;;5091162;28;20023;-60
2021/12/20 04:43:17;;;;;;;26.75;17.25;;;2.40;99.90;;;;;;5091028;28;20024;-60
2021/12/20 04:45:43;;;;;;;23.95;16.95;;;2.40;99.90;;;;;;5091124;28;20160;-60
2021/12/20 04:48:09;;;;;;;24.23;16.00;;;2.40;99.90;;;;;;5090686;28;20364;-59
2021/12/20 04:50:35;;;;;;;25.60;16.25;;;2.40;99.90;;;;;;5091100;28;20024;-60
2021/12/20 04:53:01;;;;;;;26.60;17.58;;;2.30;99.90;;;;;;5091132;28;20349;-60
2021/12/20 04:55:27;;;;;;;27.55;17.15;;;2.40;99.90;;;;;;5090854;28;20028;-60
2021/12/20 04:57:53;;;;;;;27.55;17.25;;;2.40;99.90;;;;;;5072138;28;20024;-60
2021/12/20 05:00:22;;;;;;;27.98;16.45;;;2.40;99.90;;;;;;5090540;28;20031;-60
2021/12/20 05:02:48;;;;;;;26.35;16.80;;;2.40;99.90;;;;;;5090770;28;20076;-60
2021/12/20 05:05:23;;;;;;;28.08;18.10;;;2.40;99.90;;;;;;5090758;28;20020;-60
2021/12/20 05:07:49;;;;;;;26.08;16.05;;;2.30;99.90;;;;;;5090752;28;20020;-60
2021/12/20 05:10:29;;;;;;;25.58;16.77;;;2.40;99.90;;;;;;5090717;28;20073;-61
2021/12/20 05:12:57;;;;;;;26.33;15.40;;;2.40;99.90;;;;;;5090699;28;20095;-60
2021/12/20 05:15:24;;;;;;;27.80;17.88;;;2.50;99.90;;;;;;5090459;28;20232;-60
2021/12/20 05:17:51;;;;;;;33.78;18.42;;;2.40;99.90;;;;;;5090563;28;20040;-60
2021/12/20 05:20:17;;;;;;;34.50;19.52;;;2.30;99.90;;;;;;5090382;28;20024;-60
2021/12/20 05:22:44;;;;;;;30.85;18.33;;;2.30;99.90;;;;;;5090456;28;20036;-60
2021/12/20 05:25:11;;;;;;;29.98;17.90;;;2.40;99.90;;;;;;5090438;28;20069;-60
2021/12/20 05:27:37;;;;;;;33.05;20.27;;;2.40;99.90;;;;;;5090762;28;20419;-60
2021/12/20 05:30:08;;;;;;;29.13;18.70;;;2.30;99.90;;;;;;5090383;28;20054;-60
2021/12/20 05:32:34;;;;;;;27.83;19.02;;;2.40;99.90;;;;;;5090433;28;20035;-60
2021/12/20 05:35:00;;;;;;;32.92;20.92;;;2.40;99.90;;;;;;5090482;28;20148;-60
2021/12/20 05:37:26;;;;;;;32.67;22.70;;;2.40;99.90;;;;;;5090346;28;20502;-60
2021/12/20 05:39:52;;;;;;;34.60;18.67;;;2.40;99.90;;;;;;5090477;28;20027;-60
2021/12/20 05:42:18;;;;;;;39.30;22.42;;;2.30;99.90;;;;;;5090004;28;20058;-60
2021/12/20 05:44:43;;;;;;;30.13;19.52;;;2.30;99.90;;;;;;5090429;28;20418;-60
2021/12/20 05:47:09;;;;;;;29.48;19.38;;;2.40;99.90;;;;;;5090239;28;20373;-60
2021/12/20 05:49:35;;;;;;;32.00;18.13;;;2.30;99.90;;;;;;5090407;28;20017;-60
2021/12/20 05:52:03;;;;;;;30.40;19.95;;;2.40;99.90;;;;;;5090466;28;20035;-60
2021/12/20 05:54:30;;;;;;;35.17;20.25;;;2.30;99.90;;;;;;5090183;28;20101;-60
2021/12/20 05:56:56;;;;;;;26.20;19.02;;;2.30;99.90;;;;;;5072071;28;20028;-60
2021/12/20 05:59:21;;;;;;;30.45;18.90;;;2.30;99.90;;;;;;5090197;28;20021;-60
2021/12/20 06:01:47;;;;;;;28.35;17.05;;;2.30;99.90;;;;;;5090203;28;20059;-60
2021/12/20 06:04:13;;;;;;;28.10;18.08;;;2.20;99.90;;;;;;5090099;28;20017;-60
2021/12/20 06:06:39;;;;;;;32.42;18.27;;;2.30;99.90;;;;;;5090174;28;20059;-60
2021/12/20 06:09:05;;;;;;;30.63;19.40;;;2.40;99.90;;;;;;5090001;28;20053;-60
2021/12/20 06:11:30;;;;;;;28.15;18.23;;;2.30;99.90;;;;;;5093838;28;20497;-60
2021/12/20 06:13:58;;;;;;;28.90;18.38;;;2.30;99.90;;;;;;5093925;28;20024;-60
2021/12/20 06:16:24;;;;;;;27.42;17.55;;;2.40;99.90;;;;;;5093521;28;20040;-60
2021/12/20 06:18:51;;;;;;;27.50;16.23;;;2.40;99.90;;;;;;5093981;28;20052;-60
2021/12/20 06:21:18;;;;;;;27.60;18.42;;;2.40;99.90;;;;;;5093541;28;20478;-60
2021/12/20 06:23:44;;;;;;;23.83;16.60;;;2.40;99.90;;;;;;5093673;28;20028;-60
2021/12/20 06:26:09;;;;;;;31.58;18.42;;;2.40;99.90;;;;;;5093415;28;20032;-60
2021/12/20 06:28:35;;;;;;;27.70;18.00;;;2.30;99.90;;;;;;5093711;28;20012;-60
2021/12/20 06:31:01;;;;;;;33.13;19.48;;;2.40;99.90;;;;;;5094586;28;20024;-60
2021/12/20 06:33:27;;;;;;;24.63;16.65;;;2.40;99.90;;;;;;5094676;28;20051;-61
2021/12/20 06:35:53;;;;;;;28.15;17.52;;;2.40;99.90;;;;;;5094330;28;20107;-60
2021/12/20 06:38:20;;;;;;;25.98;17.30;;;2.40;99.90;;;;;;5094135;28;20031;-60
2021/12/20 06:40:48;;;;;;;30.10;16.52;;;2.40;99.90;;;;;;5093248;28;20035;-60
2021/12/20 06:43:14;;;;;;;27.88;17.95;;;2.40;99.90;;;;;;5093722;28;20028;-60
2021/12/20 06:45:39;;;;;;;39.92;23.15;;;2.40;99.90;;;;;;5094387;28;20039;-60
2021/12/20 06:48:05;;;;;;;42.95;23.15;;;2.40;99.90;;;;;;5094013;28;20494;-60
2021/12/20 06:50:31;;;;;;;24.85;15.57;;;2.30;99.90;;;;;;5094305;28;20024;-60
2021/12/20 06:52:57;;;;;;;29.13;17.67;;;2.30;99.90;;;;;;5093873;28;20024;-60
2021/12/20 06:55:23;;;;;;;32.28;18.95;;;2.30;99.90;;;;;;5092785;28;20035;-60
2021/12/20 06:57:50;;;;;;;30.00;18.30;;;2.30;99.90;;;;;;5093119;28;20016;-60
2021/12/20 07:00:16;;;;;;;28.83;18.00;;;2.30;99.90;;;;;;5091661;28;20115;-60
2021/12/20 07:02:42;;;;;;;28.25;17.40;;;2.40;99.90;;;;;;5091998;28;20063;-60
2021/12/20 07:05:08;;;;;;;31.00;18.27;;;2.40;99.90;;;;;;5093596;28;20051;-60
2021/12/20 07:07:34;;;;;;;27.90;17.65;;;2.50;99.90;;;;;;5093960;28;20028;-60
2021/12/20 07:10:03;;;;;;;22.27;15.98;;;2.40;99.90;;;;;;5093798;28;20016;-60
2021/12/20 07:12:29;;;;;;;27.02;17.27;;;2.40;99.90;;;;;;5092802;28;20453;-60
2021/12/20 07:14:55;;;;;;;35.38;19.30;;;2.40;99.90;;;;;;5092827;28;20387;-60
2021/12/20 07:17:21;;;;;;;26.40;17.88;;;2.30;99.90;;;;;;5092418;28;20044;-60
2021/12/20 07:19:47;;;;;;;29.02;17.17;;;2.40;99.90;;;;;;5074426;28;20031;-60
2021/12/20 07:22:13;;;;;;;26.63;17.85;;;2.40;99.90;;;;;;5092037;28;20028;-60
2021/12/20 07:24:38;;;;;;;31.63;19.67;;;2.40;99.90;;;;;;5092520;28;20031;-60
2021/12/20 07:27:07;;;;;;;26.38;17.83;;;2.40;99.90;;;;;;5092548;28;20374;-60
2021/12/20 07:29:33;;;;;;;39.83;22.85;;;2.50;99.90;;;;;;5092323;28;20027;-60
2021/12/20 07:31:58;;;;;;;26.83;17.88;;;2.50;99.90;;;;;;5092589;28;20111;-60
2021/12/20 07:34:24;;;;;;;30.92;20.23;;;2.50;99.90;;;;;;5092172;28;20062;-60
2021/12/20 07:36:51;;;;;;;29.70;19.30;;;2.50;99.90;;;;;;5092353;28;20051;-60
2021/12/20 07:39:16;;;;;;;30.15;19.85;;;2.40;99.90;;;;;;5092434;28;20022;-60
2021/12/20 07:41:42;;;;;;;29.90;18.20;;;2.40;99.90;;;;;;5092688;28;20032;-60
2021/12/20 07:44:08;;;;;;;43.28;24.55;;;2.50;99.90;;;;;;5093257;28;20035;-60
2021/12/20 07:46:33;;;;;;;30.98;18.35;;;2.50;99.90;;;;;;5093263;28;20103;-60
2021/12/20 07:49:00;;;;;;;29.58;18.23;;;2.50;99.90;;;;;;5093029;28;20027;-60
2021/12/20 07:51:26;;;;;;;26.60;17.17;;;2.50;99.90;;;;;;5073818;28;20518;-60
2021/12/20 07:53:51;;;;;;;24.73;15.65;;;2.50;99.90;;;;;;5091998;28;20065;-60
2021/12/20 07:56:18;;;;;;;26.45;15.82;;;2.60;99.90;;;;;;5092460;28;20109;-60
2021/12/20 07:58:43;;;;;;;27.42;17.40;;;2.60;99.90;;;;;;5074143;28;20024;-60
2021/12/20 08:01:10;;;;;;;27.38;17.83;;;2.60;99.90;;;;;;5072130;28;20039;-60
2021/12/20 08:03:38;;;;;;;25.38;18.55;;;2.60;99.90;;;;;;5091556;28;20165;-60
2021/12/20 08:06:04;;;;;;;24.75;16.23;;;2.70;99.90;;;;;;5091800;28;20478;-60
2021/12/20 08:08:30;;;;;;;17.05;12.95;;;2.90;99.90;;;;;;5074453;28;20033;-60
2021/12/20 08:10:56;;;;;;;19.92;13.13;;;2.90;99.90;;;;;;5091810;28;20035;-61
2021/12/20 08:13:22;;;;;;;21.95;13.50;;;3.00;99.90;;;;;;5090141;28;20023;-60
2021/12/20 08:15:47;;;;;;;17.80;13.13;;;3.00;99.90;;;;;;5090878;28;20027;-60
2021/12/20 08:18:13;;;;;;;24.40;15.05;;;2.90;99.90;;;;;;5090727;28;20027;-60
2021/12/20 08:20:40;;;;;;;17.95;13.00;;;2.90;99.90;;;;;;5090847;28;20471;-60
2021/12/20 08:23:05;;;;;;;15.90;12.43;;;3.00;99.90;;;;;;5090919;28;20018;-60
2021/12/20 08:25:31;;;;;;;15.90;11.73;;;3.00;99.90;;;;;;5090822;28;20103;-60
2021/12/20 08:27:58;;;;;;;21.38;13.20;;;2.90;99.90;;;;;;5091318;28;20020;-60
2021/12/20 08:30:24;;;;;;;14.88;10.75;;;2.80;99.90;;;;;;5091321;28;20035;-60
2021/12/20 08:32:51;;;;;;;14.05;10.35;;;2.90;99.90;;;;;;5090852;28;20056;-60
2021/12/20 08:35:17;;;;;;;11.75;9.50;;;3.10;99.90;;;;;;5092162;28;20032;-60
2021/12/20 08:37:43;;;;;;;13.98;10.27;;;3.20;99.90;;;;;;5091673;28;20441;-60
2021/12/20 08:40:11;;;;;;;17.17;10.05;;;3.20;99.90;;;;;;5091897;28;20028;-60
2021/12/20 08:46:02;;;;;;;13.98;10.48;;;3.10;99.90;;;;;;5091504;28;20533;-60
2021/12/20 08:48:29;;;;;;;17.35;11.95;;;3.20;99.90;;;;;;5091781;28;20028;-61
2021/12/20 08:50:55;;;;;;;16.67;10.85;;;3.10;99.90;;;;;;5091551;28;20111;-61
2021/12/20 08:53:21;;;;;;;20.67;11.73;;;3.40;99.90;;;;;;5091480;28;20107;-60
2021/12/20 08:55:46;;;;;;;26.60;15.32;;;3.50;99.90;;;;;;5091531;28;20036;-60
2021/12/20 08:58:12;;;;;;;22.60;14.25;;;3.50;99.90;;;;;;5090688;28;20024;-60
2021/12/20 09:00:38;;;;;;;22.50;14.13;;;3.70;99.90;;;;;;5091912;28;20047;-60
2021/12/20 09:03:04;;;;;;;24.20;15.43;;;3.70;99.90;;;;;;5091871;28;20470;-61
2021/12/20 09:05:58;;;;;;;20.48;14.52;;;3.80;99.90;;;;;;5091918;28;20020;-61
2021/12/20 09:08:23;;;;;;;22.25;15.20;;;4.10;99.90;;;;;;5091976;28;20024;-61
2021/12/20 09:10:49;;;;;;;22.73;14.48;;;4.00;99.90;;;;;;5091893;28;20463;-61
2021/12/20 09:13:15;;;;;;;19.38;13.57;;;3.90;99.90;;;;;;5073290;28;20156;-60
2021/12/20 09:15:41;;;;;;;21.20;14.23;;;4.00;99.90;;;;;;5090993;28;20039;-60
2021/12/20 09:18:10;;;;;;;25.35;15.10;;;4.00;99.90;;;;;;5090325;28;20356;-61
2021/12/20 09:20:37;;;;;;;21.60;15.23;;;4.10;99.90;;;;;;5089927;28;20024;-60
2021/12/20 09:23:05;;;;;;;20.33;13.95;;;4.20;99.90;;;;;;5090531;28;20020;-61
2021/12/20 09:25:34;;;;;;;21.77;14.40;;;4.20;99.90;;;;;;5090451;28;20030;-60
2021/12/20 09:28:02;;;;;;;22.10;13.25;;;4.30;99.90;;;;;;5090587;28;20024;-60
2021/12/20 09:30:29;;;;;;;24.10;14.35;;;3.80;99.90;;;;;;5090587;28;20461;-60
2021/12/20 09:32:55;;;;;;;21.17;13.77;;;3.80;99.90;;;;;;5090622;28;20452;-61
2021/12/20 09:35:21;;;;;;;20.27;14.18;;;3.70;99.90;;;;;;5090638;28;20028;-60
2021/12/20 09:37:50;;;;;;;20.90;12.65;;;3.60;99.90;;;;;;5090638;28;20024;-60
2021/12/20 09:40:20;;;;;;;19.52;14.23;;;3.50;99.90;;;;;;5090745;28;20470;-60
2021/12/20 09:42:52;;;;;;;28.52;14.77;;;3.40;99.90;;;;;;5090441;28;20028;-60
2021/12/20 09:45:22;;;;;;;21.25;13.40;;;3.10;99.90;;;;;;5094012;28;20074;-60
2021/12/20 09:47:50;;;;;;;22.88;12.43;;;3.00;99.90;;;;;;5094593;28;20021;-60
2021/12/20 09:50:16;;;;;;;18.83;12.50;;;3.10;99.90;;;;;;5094242;28;20035;-60
2021/12/20 09:52:43;;;;;;;20.70;13.73;;;3.20;99.90;;;;;;5094453;28;20505;-60
2021/12/20 09:55:10;;;;;;;18.13;11.43;;;3.40;99.90;;;;;;5094115;28;20050;-61
2021/12/20 09:57:37;;;;;;;16.30;11.60;;;3.40;99.90;;;;;;5094272;28;20024;-61
2021/12/20 10:00:06;;;;;;;15.38;9.95;;;3.50;99.90;;;;;;5094180;28;20028;-60
2021/12/20 10:02:31;;;;;;;15.05;9.10;;;3.90;99.90;;;;;;5094262;28;20368;-60
2021/12/20 10:04:57;;;;;;;13.13;9.13;;;5.00;99.90;;;;;;5094176;28;20027;-60
2021/12/20 10:07:25;;;;;;;11.02;7.13;;;6.50;99.90;;;;;;5094047;28;20508;-61
2021/12/20 10:09:51;;;;;;;9.35;6.53;;;7.30;99.90;;;;;;5094115;28;20038;-60
2021/12/20 10:12:19;;;;;;;11.25;5.68;;;7.00;99.90;;;;;;5093899;28;20051;-61
2021/12/20 10:15:10;;;;;;;9.50;6.18;;;7.30;98.30;;;;;;5075766;28;20077;-60
2021/12/20 10:17:59;;;;;;;7.93;5.85;;;6.20;99.90;;;;;;5093868;28;20410;-61
2021/12/20 10:20:30;;;;;;;24.77;12.73;;;6.10;99.90;;;;;;5093691;28;20024;-60
2021/12/20 10:23:19;;;;;;;11.13;7.70;;;5.60;99.90;;;;;;5093876;28;20024;-60
2021/12/20 10:26:10;;;;;;;11.73;7.85;;;5.40;99.90;;;;;;5076412;28;20017;-62
2021/12/20 10:28:37;;;;;;;12.52;6.72;;;5.50;99.90;;;;;;5086399;28;20093;-61
2021/12/20 10:31:02;;;;;;;19.40;8.10;;;5.70;99.90;;;;;;5093750;28;20032;-61
2021/12/20 10:33:29;;;;;;;12.60;9.20;;;5.80;99.90;;;;;;5093476;28;20386;-61
2021/12/20 10:35:57;;;;;;;14.55;7.05;;;6.40;99.90;;;;;;5094277;28;20035;-61
2021/12/20 10:38:25;;;;;;;20.48;8.48;;;7.20;99.90;;;;;;5094574;28;20035;-61
2021/12/20 10:41:18;;;;;;;12.63;6.65;;;7.60;98.90;;;;;;5094598;28;20383;-61
2021/12/20 10:44:16;;;;;;;10.20;6.88;;;7.30;98.20;;;;;;5070506;28;20471;-60
2021/12/20 10:46:52;;;;;;;10.00;6.95;;;7.30;99.00;;;;;;5094112;28;20402;-62
2021/12/20 10:49:24;;;;;;;11.00;6.97;;;7.30;98.20;;;;;;5094314;28;20366;-61
2021/12/20 10:51:52;;;;;;;9.43;5.55;;;8.70;96.40;;;;;;5094454;28;20028;-61
2021/12/20 10:54:23;;;;;;;12.85;6.35;;;10.30;91.00;;;;;;5094056;28;20039;-61
2021/12/20 10:57:01;;;;;;;11.32;6.75;;;9.80;88.00;;;;;;5092967;28;20120;-61
2021/12/20 10:59:29;;;;;;;10.23;6.40;;;10.80;85.80;;;;;;5093671;28;20028;-61
2021/12/20 11:04:27;;;;;;;12.52;6.20;;;10.80;81.90;;;;;;5094146;28;20076;-61
2021/12/20 11:09:04;;;;;;;11.10;6.72;;;10.30;79.50;;;;;;5094525;28;20032;-62
2021/12/20 11:09:58;;;;;;;8.07;5.10;;;10.00;81.20;;;;;;5093865;28;20020;-61
2021/12/20 11:12:31;;;;;;;11.30;5.05;;;11.60;78.00;;;;;;5093784;28;20468;-61
2021/12/20 11:15:16;;;;;;;8.60;4.83;;;11.80;73.50;;;;;;5094037;28;20029;-59
2021/12/20 11:17:45;;;;;;;6.55;5.05;;;12.20;69.10;;;;;;5093767;28;20530;-61
2021/12/20 11:20:18;;;;;;;9.00;5.43;;;12.90;66.40;;;;;;5093849;28;20067;-61
2021/12/20 11:22:44;;;;;;;8.18;6.22;;;12.10;65.60;;;;;;5093934;28;20119;-61
2021/12/20 11:25:11;;;;;;;4.80;3.75;;;12.30;61.50;;;;;;5093649;28;20107;-59
2021/12/20 11:27:42;;;;;;;19.92;10.73;;;12.10;59.40;;;;;;5093787;28;20028;-61
2021/12/20 11:30:09;;;;;;;10.20;6.10;;;11.60;60.20;;;;;;5093755;28;20020;-61
2021/12/20 11:32:35;;;;;;;8.05;4.68;;;11.60;61.60;;;;;;5093724;28;20032;-61
2021/12/20 11:35:01;;;;;;;9.02;4.97;;;10.80;62.20;;;;;;5093650;28;20157;-62
2021/12/20 11:37:28;;;;;;;29.20;13.05;;;11.90;62.00;;;;;;5093310;28;20527;-59
2021/12/20 11:39:56;;;;;;;10.60;5.22;;;12.10;59.90;;;;;;5093466;28;20020;-59
2021/12/20 11:42:23;;;;;;;31.45;14.43;;;11.90;58.90;;;;;;5093143;28;20020;-61
2021/12/20 11:44:53;;;;;;;35.05;16.02;;;11.20;61.40;;;;;;5093344;28;20024;-61
2021/12/20 11:47:34;;;;;;;15.15;8.07;;;12.80;58.50;;;;;;5093257;28;20024;-61
2021/12/20 11:49:59;;;;;;;10.98;5.70;;;11.00;62.40;;;;;;5093298;28;20061;-60
2021/12/20 11:52:37;;;;;;;10.13;6.00;;;11.70;60.70;;;;;;5093168;28;20071;-60
2021/12/20 11:55:22;;;;;;;44.03;19.95;;;12.40;60.20;;;;;;5093212;28;20464;-60
2021/12/20 11:57:52;;;;;;;25.05;11.85;;;13.00;59.40;;;;;;5093262;28;20355;-60
2021/12/20 12:00:36;;;;;;;11.32;6.60;;;12.40;60.00;;;;;;5093026;28;20062;-60
2021/12/20 12:03:06;;;;;;;13.45;6.90;;;10.40;63.70;;;;;;5093059;28;20035;-61
2021/12/20 12:05:34;;;;;;;11.98;6.22;;;10.40;64.30;;;;;;5092909;28;20028;-60
2021/12/20 12:08:32;;;;;;;15.32;8.10;;;10.40;64.30;;;;;;5091872;28;20043;-60
2021/12/20 12:11:06;;;;;;;11.45;6.43;;;9.40;67.70;;;;;;5074648;28;20482;-60
2021/12/20 12:13:50;;;;;;;7.32;5.72;;;7.80;71.70;;;;;;5092723;28;20040;-60
2021/12/20 12:16:30;;;;;;;7.00;5.70;;;8.00;72.00;;;;;;5092489;28;20047;-60
2021/12/20 12:18:58;;;;;;;17.38;9.98;;;7.50;74.10;;;;;;5092789;28;20019;-60
2021/12/20 12:21:32;;;;;;;17.30;10.38;;;7.30;75.30;;;;;;5092675;28;20024;-60
2021/12/20 12:24:03;;;;;;;18.85;9.07;;;7.30;74.30;;;;;;5092719;28;20024;-60
2021/12/20 12:26:31;;;;;;;5.53;4.30;;;8.00;73.00;;;;;;5092508;28;20039;-60
2021/12/20 12:28:57;;;;;;;9.20;4.68;;;8.10;71.80;;;;;;5092573;28;20032;-60
2021/12/20 12:31:24;;;;;;;6.85;5.45;;;8.50;72.50;;;;;;5092410;28;20035;-61
2021/12/20 12:34:11;;;;;;;6.90;5.32;;;8.50;71.00;;;;;;5092554;28;20024;-60
2021/12/20 12:36:42;;;;;;;9.02;5.57;;;8.10;73.20;;;;;;5086713;28;20479;-60
2021/12/20 12:39:28;;;;;;;10.30;5.45;;;7.70;74.50;;;;;;5080873;28;20036;-61
2021/12/20 12:42:01;;;;;;;7.78;3.58;;;7.90;75.40;;;;;;5080101;28;20107;-61
2021/12/20 12:44:28;;;;;;;239.70;109.05;;;8.10;73.60;;;;;;5081013;28;20426;-60
2021/12/20 12:46:58;;;;;;;9.80;5.57;;;8.20;74.00;;;;;;5080881;28;20364;-61
2021/12/20 12:49:29;;;;;;;36.65;13.88;;;8.10;74.70;;;;;;5080782;28;20367;-60
2021/12/20 12:51:57;;;;;;;11.13;4.90;;;8.10;76.40;;;;;;5080270;28;20042;-60
2021/12/20 12:54:32;;;;;;;7.28;3.97;;;7.80;74.80;;;;;;5091953;28;20063;-61
2021/12/20 12:57:07;;;;;;;15.07;6.65;;;7.20;78.50;;;;;;5094240;28;20028;-60
2021/12/20 12:59:34;;;;;;;12.80;5.95;;;7.40;76.60;;;;;;5081069;28;20024;-60
2021/12/20 13:02:09;;;;;;;9.60;7.15;;;7.80;77.80;;;;;;5083971;28;20033;-60